This is the latest recevied weather packets stored in our database for station/object KP4OZ. If no packets are shown the sender has not sent any weather packets the latest 10 day(s).
| Time | Temp. | Humidity | Pressure | Rain* | Wind** | Luminosity | Snow |
|---|---|---|---|---|---|---|---|
| 1778091053 | 34.44° C | 44% | 1016.6 hPa | 0 mm | - | - | - |
| 1778090750 | 33.89° C | 51% | 1016.4 hPa | 0 mm | - | - | - |
| 1778090447 | 33.89° C | 47% | 1016.6 hPa | 0 mm | - | - | - |
| 1778090143 | 32.78° C | 50% | 1016.5 hPa | 0 mm | - | - | - |
| 1778089839 | 32.78° C | 59% | 1016.6 hPa | 0 mm | - | - | - |
| 1778089538 | 32.78° C | 58% | 1016.9 hPa | 0 mm | - | - | - |
| 1778089234 | 31.67° C | 62% | 1016.8 hPa | 0 mm | - | - | - |
| 1778088932 | 31.67° C | 62% | 1017.1 hPa | 0 mm | - | - | - |
| 1778088628 | 31.11° C | 63% | 1017 hPa | 0 mm | - | - | - |
| 1778088326 | 31.67° C | 62% | 1017.1 hPa | 0 mm | - | - | - |
| 1778088022 | 30.56° C | 65% | 1017.3 hPa | 0 mm | - | - | - |
| 1778087720 | 30.56° C | 66% | 1017.5 hPa | 0 mm | - | - | - |
| 1778087417 | 31.67° C | 64% | 1017.6 hPa | 0 mm | - | - | - |
| 1778087115 | 31.11° C | 64% | 1017.6 hPa | 0 mm | - | - | - |
| 1778086812 | 30.56° C | 67% | 1017.6 hPa | 0 mm | - | - | - |
| 1778086510 | 31.11° C | 65% | 1017.6 hPa | 0 mm | - | - | - |
| 1778086206 | 31.11° C | 64% | 1017.6 hPa | 0 mm | - | - | - |
| 1778085903 | 30.56° C | 65% | 1017.8 hPa | 0 mm | - | - | - |
| 1778085601 | 31.11° C | 65% | 1017.9 hPa | 0 mm | - | - | - |
| 1778085295 | 30.56° C | 65% | 1018 hPa | 0 mm | - | - | - |
| 1778084990 | 30.56° C | 65% | 1018.1 hPa | 0 mm | - | - | - |
| 1778084689 | 30° C | 66% | 1018.1 hPa | 0 mm | - | - | - |
| 1778084386 | 30° C | 68% | 1018 hPa | 0 mm | - | - | - |
| 1778084083 | 30.56° C | 65% | 1018.2 hPa | 0 mm | - | - | - |
| 1778083781 | 30° C | 66% | 1018.2 hPa | 0 mm | - | - | - |
* Rain latest hour (hover to see other rain measurements)
** Current wind speed in m/s (hover to see current wind gust speed)